Time;durP1;ratioP1;P1;durP2;ratioP2;P2;SDS_P1;SDS_P2;PMS_P1;PMS_P2;Temp;Humidity;BMP_temperature;BMP_pressure;BME280_temperature;BME280_humidity;BME280_pressure;Samples;Min_cycle;Max_cycle;Signal;HPM_P1;HPM_P2
2021/01/08 00:11:40;;;;;;;17.63;10.18;;;;;;;9.43;65.83;98661.94;5199164;23;20430;-82
2021/01/08 00:14:06;;;;;;;18.15;10.18;;;;;;;9.47;65.99;98662.19;4864122;29;20041;-80
2021/01/08 00:16:35;;;;;;;20.83;10.43;;;;;;;9.50;65.81;98663.53;4871613;29;20032;-79
2021/01/08 00:39:24;;;;;;;16.52;8.00;;;;;;;9.57;66.40;98682.69;4897681;29;20544;-87
2021/01/08 00:59:00;;;;;;;13.63;7.63;;;;;;;9.22;67.14;98655.97;4910624;29;20055;-81
2021/01/08 01:01:42;;;;;;;10.40;6.93;;;;;;;9.18;67.11;98640.78;4898690;29;20037;-80
2021/01/08 01:07:49;;;;;;;13.70;7.57;;;;;;;9.01;67.62;98614.47;4882996;29;20108;-80
2021/01/08 01:10:15;;;;;;;12.02;8.05;;;;;;;8.93;68.39;98605.19;4896155;29;20032;-80
2021/01/08 01:18:42;;;;;;;12.45;8.63;;;;;;;8.83;69.29;98614.03;4910259;23;20060;-81
2021/01/08 01:25:07;;;;;;;14.18;8.88;;;;;;;8.79;69.72;98595.13;4901898;29;20062;-83
2021/01/08 01:30:57;;;;;;;18.00;10.65;;;;;;;8.78;70.30;98574.88;4846674;29;20105;-80
2021/01/08 01:37:25;;;;;;;14.02;10.23;;;;;;;8.84;70.42;98561.50;4921643;29;20115;-82
2021/01/08 01:40:15;;;;;;;20.02;11.55;;;;;;;8.85;70.54;98557.75;4886470;29;20037;-81
2021/01/08 01:45:22;;;;;;;19.17;11.88;;;;;;;8.87;70.32;98569.75;5858864;23;20087;-80
2021/01/08 01:47:48;;;;;;;18.00;11.50;;;;;;;8.86;70.45;98568.16;4923072;29;20036;-79
2021/01/08 01:50:14;;;;;;;21.20;11.13;;;;;;;8.88;71.32;98574.00;4898797;29;20036;-80
2021/01/08 01:53:25;;;;;;;21.88;12.13;;;;;;;8.91;70.90;98568.13;4917702;29;20095;-83
2021/01/08 01:56:13;;;;;;;19.05;9.93;;;;;;;8.94;70.65;98575.56;4918728;29;20032;-81
2021/01/08 01:58:41;;;;;;;16.92;9.43;;;;;;;8.99;70.46;98572.06;4901116;29;20035;-82
2021/01/08 02:01:37;;;;;;;;;;;;;;;9.04;70.37;98573.91;4889957;29;20063;-82
2021/01/08 02:04:06;;;;;;;14.88;8.90;;;;;;;9.06;70.19;98567.22;4871325;29;19970;-81
2021/01/08 02:06:50;;;;;;;15.93;9.88;;;;;;;9.05;70.09;98546.19;4880700;29;20490;-81
2021/01/08 02:09:15;;;;;;;11.60;8.02;;;;;;;9.00;69.77;98544.34;4888569;29;20036;-79
2021/01/08 02:11:48;;;;;;;14.70;8.50;;;;;;;8.99;69.55;98534.75;4910230;29;20491;-81
2021/01/08 02:14:26;;;;;;;11.60;7.97;;;;;;;8.93;69.35;98527.84;4920741;29;20032;-81
2021/01/08 02:58:30;;;;;;;19.40;9.93;;;;;;;8.64;72.50;98512.56;4924965;29;20125;-84
2021/01/08 03:55:21;;;;;;;22.08;14.70;;;;;;;8.78;74.40;98510.88;5315605;23;20065;-80
2021/01/08 03:57:47;;;;;;;21.13;12.45;;;;;;;8.79;74.39;98514.34;4874511;29;20043;-80
2021/01/08 04:00:37;;;;;;;22.35;13.90;;;;;;;8.78;74.28;98510.09;4880539;29;20505;-81
2021/01/08 04:03:33;;;;;;;22.73;12.77;;;;;;;8.77;75.00;98503.94;4866197;29;20041;-80
2021/01/08 04:06:20;;;;;;;17.83;10.95;;;;;;;8.73;74.70;98502.91;4824319;29;20035;-81
2021/01/08 04:08:48;;;;;;;12.88;8.75;;;;;;;8.74;74.39;98509.03;4828903;29;20555;-81
2021/01/08 04:11:23;;;;;;;13.95;8.05;;;;;;;8.70;74.78;98502.69;4877659;29;20057;-81
2021/01/08 04:13:57;;;;;;;11.70;7.72;;;;;;;8.67;74.87;98501.38;4883341;29;20027;-81
2021/01/08 04:26:44;;;;;;;18.10;8.80;;;;;;;8.68;75.66;98489.63;4884256;29;20104;-80
2021/01/08 04:29:12;;;;;;;16.67;9.70;;;;;;;8.67;75.81;98493.38;4844872;29;20043;-79
2021/01/08 04:32:21;;;;;;;13.85;8.65;;;;;;;8.68;75.78;98494.97;4876821;29;20045;-80
2021/01/08 04:34:47;;;;;;;20.48;9.50;;;;;;;8.68;76.25;98492.28;4862208;29;20423;-79
2021/01/08 04:37:18;;;;;;;16.50;9.20;;;;;;;8.67;76.27;98487.22;4843824;29;20028;-81
2021/01/08 04:39:44;;;;;;;16.08;8.88;;;;;;;8.67;76.20;98492.56;4862898;29;20562;-78
2021/01/08 04:42:09;;;;;;;14.10;8.25;;;;;;;8.67;76.07;98488.03;4863186;29;20033;-78
2021/01/08 04:44:35;;;;;;;16.17;9.18;;;;;;;8.62;76.49;98472.06;4861765;29;20069;-78
2021/01/08 04:47:43;;;;;;;20.85;9.27;;;;;;;8.62;76.46;98475.53;4864916;29;20451;-81
2021/01/08 04:50:30;;;;;;;19.92;9.43;;;;;;;8.54;77.53;98468.13;4864758;29;20033;-79
2021/01/08 04:52:56;;;;;;;18.50;9.85;;;;;;;8.48;78.28;98470.03;4855945;29;20028;-79
2021/01/08 05:02:38;;;;;;;24.48;9.75;;;;;;;8.54;78.27;98460.13;5042956;23;20049;-81
2021/01/08 05:08:55;;;;;;;21.42;9.73;;;;;;;8.61;77.73;98454.50;4899452;29;20533;-81
2021/01/08 05:11:41;;;;;;;19.30;10.20;;;;;;;8.64;77.68;98460.06;4867569;29;20049;-79
2021/01/08 05:18:00;;;;;;;25.23;12.82;;;;;;;8.64;77.33;98462.72;4904079;29;20096;-82
2021/01/08 05:21:07;;;;;;;20.27;11.95;;;;;;;8.57;77.72;98440.91;4824899;29;20041;-81
2021/01/08 05:24:38;;;;;;;19.65;10.85;;;;;;;8.58;77.68;98442.53;4859564;29;20026;-82
2021/01/08 05:27:51;;;;;;;24.52;12.80;;;;;;;8.65;77.51;98440.34;4794432;29;20066;-81
2021/01/08 05:34:58;;;;;;;26.98;12.75;;;;;;;8.66;77.27;98441.13;4821976;29;20096;-81
2021/01/08 05:37:29;;;;;;;27.42;14.40;;;;;;;8.60;77.78;98442.22;4805752;29;20055;-78
2021/01/08 05:40:29;;;;;;;17.20;10.52;;;;;;;8.59;77.93;98438.78;4790291;29;20043;-81
2021/01/08 06:15:23;;;;;;;28.60;12.75;;;;;;;8.40;79.49;98389.84;4903543;29;20065;-83
2021/01/08 06:48:38;;;;;;;21.33;10.48;;;;;;;8.54;80.66;98385.50;4899212;29;20096;-81
2021/01/08 07:47:11;;;;;;;24.08;10.02;;;;;;;9.66;77.72;98414.03;4841247;29;20049;-86
2021/01/08 07:56:05;;;;;;;21.27;10.13;;;;;;;9.74;77.61;98404.59;4841888;29;20506;-87
2021/01/08 07:58:31;;;;;;;24.85;10.15;;;;;;;9.76;77.40;98410.44;4824950;29;20130;-86
2021/01/08 08:00:59;;;;;;;20.90;10.77;;;;;;;9.81;77.30;98404.25;4828049;29;20041;-87
2021/01/08 08:03:25;;;;;;;20.77;9.67;;;;;;;9.83;76.96;98407.44;4877273;29;20053;-87
2021/01/08 08:05:56;;;;;;;27.83;9.70;;;;;;;9.86;77.54;98409.53;4876954;29;20472;-87
2021/01/08 08:08:24;;;;;;;18.75;10.00;;;;;;;9.87;77.38;98417.25;4877635;29;20056;-86
2021/01/08 08:10:50;;;;;;;16.48;8.23;;;;;;;9.90;77.47;98414.00;4877391;29;20033;-86
2021/01/08 08:13:15;;;;;;;18.63;8.93;;;;;;;9.90;77.13;98422.03;4877319;29;20422;-87
2021/01/08 08:19:54;;;;;;;17.85;9.18;;;;;;;9.86;77.36;98420.19;4878654;29;20043;-86
2021/01/08 08:25:59;;;;;;;19.67;9.20;;;;;;;9.88;77.68;98423.38;4872068;29;20040;-85
2021/01/08 08:28:25;;;;;;;19.75;9.60;;;;;;;9.90;77.36;98415.91;4877488;29;20119;-86
2021/01/08 08:30:52;;;;;;;15.50;8.75;;;;;;;9.95;77.66;98413.16;4861806;29;20111;-86
2021/01/08 08:33:20;;;;;;;19.15;10.25;;;;;;;10.01;77.70;98427.22;4877080;29;20048;-86
2021/01/08 08:35:46;;;;;;;23.52;10.93;;;;;;;10.05;78.03;98412.22;4876909;29;20052;-86
2021/01/08 08:38:12;;;;;;;30.27;11.68;;;;;;;10.10;77.71;98410.25;4877209;29;20517;-86
2021/01/08 08:40:38;;;;;;;23.85;12.27;;;;;;;10.16;77.99;98415.56;4876609;29;20036;-86
2021/01/08 08:43:03;;;;;;;25.17;12.50;;;;;;;10.22;77.72;98415.19;4877075;29;20033;-86
2021/01/08 08:45:31;;;;;;;30.98;14.02;;;;;;;10.29;77.59;98416.69;4876827;29;20037;-86
2021/01/08 08:47:59;;;;;;;34.37;15.60;;;;;;;10.36;77.56;98414.47;4876998;29;20619;-86
2021/01/08 08:50:25;;;;;;;31.30;15.05;;;;;;;10.43;77.53;98409.56;4876989;29;20041;-86
2021/01/08 08:52:52;;;;;;;32.22;16.90;;;;;;;10.50;77.19;98401.19;4876514;29;20150;-86
2021/01/08 08:55:30;;;;;;;34.88;18.40;;;;;;;10.53;77.38;98389.91;4876760;29;20037;-85
2021/01/08 08:58:06;;;;;;;;;;;;;;;10.57;77.04;98382.91;4877207;29;20505;-86
2021/01/08 09:00:36;;;;;;;30.02;14.63;;;;;;;10.60;77.14;98386.88;4876540;29;20285;-86
2021/01/08 09:03:34;;;;;;;29.10;15.38;;;;;;;10.68;77.59;98381.66;4876754;29;20034;-85
2021/01/08 09:06:01;;;;;;;29.83;15.98;;;;;;;10.73;77.30;98378.88;4835940;29;20044;-85
2021/01/08 09:08:32;;;;;;;30.50;14.77;;;;;;;10.84;77.74;98376.03;4876541;29;20189;-85
2021/01/08 09:11:09;;;;;;;24.80;12.52;;;;;;;10.95;78.00;98356.06;4877204;29;20474;-84
2021/01/08 09:13:58;;;;;;;21.60;11.77;;;;;;;11.10;77.83;98327.44;4876265;29;20029;-86
2021/01/08 09:16:42;;;;;;;;;;;;;;;11.31;78.72;98323.25;4876859;29;20044;-85
2021/01/08 09:19:10;;;;;;;15.43;10.27;;;;;;;11.51;77.96;98324.72;4876457;29;19912;-85
2021/01/08 09:21:48;;;;;;;24.67;10.25;;;;;;;11.72;77.15;98336.88;4876122;29;20123;-85
2021/01/08 09:24:18;;;;;;;27.27;10.93;;;;;;;11.90;76.31;98335.16;4876484;29;20411;-85
2021/01/08 09:26:44;;;;;;;17.85;8.48;;;;;;;12.09;75.99;98324.31;4876111;29;20088;-85
2021/01/08 09:29:10;;;;;;;14.30;7.75;;;;;;;12.26;75.52;98337.84;4876329;29;20455;-85
2021/01/08 09:31:43;;;;;;;15.82;7.28;;;;;;;12.41;75.23;98331.31;4876021;29;20033;-85
2021/01/08 09:34:10;;;;;;;12.77;5.32;;;;;;;12.58;74.03;98324.50;4860725;29;20466;-85
2021/01/08 09:36:40;;;;;;;11.63;5.95;;;;;;;12.75;74.10;98311.16;4857507;29;20518;-85
2021/01/08 09:39:08;;;;;;;13.35;4.65;;;;;;;12.94;73.67;98269.91;4857627;29;20037;-84
2021/01/08 09:41:34;;;;;;;13.25;4.05;;;;;;;13.17;72.88;98265.25;4857325;29;20061;-85
2021/01/08 09:44:02;;;;;;;6.95;2.85;;;;;;;13.42;71.83;98254.91;4857555;29;20136;-84
2021/01/08 09:46:27;;;;;;;5.63;2.53;;;;;;;13.68;70.94;98251.44;4857629;29;20034;-85
2021/01/08 09:48:54;;;;;;;7.15;2.97;;;;;;;13.94;69.76;98254.13;4857322;29;20025;-85
2021/01/08 09:51:20;;;;;;;5.70;2.67;;;;;;;14.18;68.90;98242.06;4857495;29;20132;-85
2021/01/08 09:53:54;;;;;;;5.57;2.17;;;;;;;14.39;68.05;98242.97;4857081;29;20080;-85
2021/01/08 09:56:21;;;;;;;7.50;2.50;;;;;;;14.61;67.56;98229.59;4857390;29;20487;-84
2021/01/08 09:58:47;;;;;;;11.43;2.75;;;;;;;14.77;66.51;98224.50;4856944;29;20121;-84
2021/01/08 10:01:13;;;;;;;5.32;2.58;;;;;;;14.93;65.62;98212.06;4857424;29;20116;-85
2021/01/08 10:03:49;;;;;;;7.57;2.60;;;;;;;15.10;64.71;98215.78;4857122;29;20034;-85
2021/01/08 10:06:15;;;;;;;10.18;3.25;;;;;;;15.24;64.56;98218.22;4857314;29;20026;-85
2021/01/08 10:08:40;;;;;;;9.48;2.33;;;;;;;15.35;63.93;98222.88;4857206;29;20029;-85
2021/01/08 10:11:06;;;;;;;9.80;2.60;;;;;;;15.43;64.08;98197.03;4857261;29;20061;-84
2021/01/08 10:13:34;;;;;;;8.82;2.47;;;;;;;15.54;63.74;98202.81;4856931;29;20056;-85
2021/01/08 10:16:09;;;;;;;7.10;2.13;;;;;;;15.64;63.88;98178.13;4857284;29;20029;-85
2021/01/08 10:18:36;;;;;;;6.40;2.10;;;;;;;15.72;63.13;98198.06;4857042;29;20029;-84
2021/01/08 10:21:09;;;;;;;7.07;2.08;;;;;;;15.78;62.97;98194.03;4857353;29;20078;-85
2021/01/08 10:23:43;;;;;;;10.85;2.60;;;;;;;15.84;62.73;98191.94;4856993;29;20407;-86
2021/01/08 10:26:17;;;;;;;6.82;2.35;;;;;;;15.90;62.89;98193.31;4857226;29;20146;-86
2021/01/08 10:28:48;;;;;;;6.00;2.50;;;;;;;15.94;62.28;98188.84;4856998;29;20120;-84
2021/01/08 10:31:15;;;;;;;8.90;2.70;;;;;;;15.99;62.92;98190.50;4860751;29;20397;-85
2021/01/08 10:33:41;;;;;;;6.55;2.58;;;;;;;16.06;62.48;98192.69;4860476;29;20029;-85
2021/01/08 10:36:06;;;;;;;6.40;2.72;;;;;;;16.08;62.72;98180.44;4875497;29;20041;-86
2021/01/08 10:38:32;;;;;;;6.82;3.25;;;;;;;16.12;62.00;98184.03;4878957;29;20483;-85
2021/01/08 10:40:57;;;;;;;4.90;2.42;;;;;;;16.15;62.06;98161.81;4879203;29;20043;-85
2021/01/08 10:43:22;;;;;;;3.70;2.30;;;;;;;16.18;61.77;98163.03;4863656;29;20029;-86
2021/01/08 10:45:49;;;;;;;4.85;2.83;;;;;;;16.20;61.33;98150.00;4878780;29;20037;-84
2021/01/08 10:48:15;;;;;;;8.32;2.50;;;;;;;16.23;61.51;98143.94;4880244;29;20028;-85
2021/01/08 10:50:40;;;;;;;10.32;3.33;;;;;;;16.26;61.25;98156.75;4878793;29;20029;-84
2021/01/08 10:53:06;;;;;;;10.02;3.85;;;;;;;16.29;61.45;98142.59;4879018;29;20077;-84
2021/01/08 10:55:31;;;;;;;9.65;3.40;;;;;;;16.30;60.94;98151.50;4878995;29;20475;-84
2021/01/08 10:57:57;;;;;;;6.75;2.72;;;;;;;16.30;60.26;98136.06;4863272;29;20079;-83
2021/01/08 11:00:23;;;;;;;4.82;2.38;;;;;;;16.33;60.50;98154.31;4878831;29;20464;-86
2021/01/08 11:02:48;;;;;;;9.57;3.00;;;;;;;16.34;60.67;98155.06;4878632;29;20033;-84
2021/01/08 11:05:14;;;;;;;6.57;3.05;;;;;;;16.36;60.62;98177.13;4878888;29;20041;-85
2021/01/08 11:07:40;;;;;;;7.63;2.92;;;;;;;16.38;60.14;98166.78;4878544;29;20040;-85
2021/01/08 11:10:06;;;;;;;12.25;2.75;;;;;;;16.40;60.07;98161.81;4878720;29;20509;-85
2021/01/08 11:12:33;;;;;;;8.85;2.05;;;;;;;16.41;60.29;98176.13;4878511;29;20029;-84
2021/01/08 11:15:04;;;;;;;8.18;3.20;;;;;;;16.41;60.40;98160.72;4878578;29;20064;-84
2021/01/08 11:17:29;;;;;;;9.18;2.42;;;;;;;16.41;60.38;98141.81;4878574;29;20033;-84
2021/01/08 11:19:55;;;;;;;5.00;2.58;;;;;;;16.41;60.30;98138.34;4862803;29;20029;-84
2021/01/08 11:22:20;;;;;;;8.05;3.38;;;;;;;16.41;59.95;98105.97;4878532;29;20383;-84
2021/01/08 11:24:46;;;;;;;7.63;3.42;;;;;;;16.41;60.02;98109.44;4878288;29;20029;-83
2021/01/08 11:27:12;;;;;;;14.20;3.83;;;;;;;16.44;60.14;98097.19;4862889;29;20479;-84
2021/01/08 11:29:37;;;;;;;12.57;3.20;;;;;;;16.44;59.08;98100.69;4878133;29;20029;-85
2021/01/08 11:32:06;;;;;;;7.35;2.67;;;;;;;16.46;59.39;98111.91;4878399;29;20021;-84
2021/01/08 11:34:32;;;;;;;6.30;3.17;;;;;;;16.48;59.00;98108.88;4878078;29;20061;-84
2021/01/08 11:36:57;;;;;;;8.48;2.95;;;;;;;16.51;58.91;98097.41;4878064;29;20376;-83
2021/01/08 11:39:23;;;;;;;6.03;2.67;;;;;;;16.53;58.60;98083.56;4879490;29;20033;-83
2021/01/08 11:41:49;;;;;;;7.07;3.03;;;;;;;16.56;58.57;98080.97;4877893;29;20482;-83
2021/01/08 11:44:14;;;;;;;5.82;2.83;;;;;;;16.58;57.87;98089.53;4878121;29;20655;-83
2021/01/08 11:46:40;;;;;;;5.00;2.40;;;;;;;16.61;57.47;98082.66;4877810;29;20037;-83
2021/01/08 11:49:05;;;;;;;7.45;2.80;;;;;;;16.63;57.30;98080.41;4877989;29;20033;-84
2021/01/08 11:51:31;;;;;;;6.30;2.70;;;;;;;16.68;57.53;98085.56;4877935;29;20121;-82
2021/01/08 11:53:56;;;;;;;8.63;3.03;;;;;;;16.73;57.30;98087.25;4877528;29;20132;-83
2021/01/08 11:56:31;;;;;;;7.22;2.85;;;;;;;16.76;57.24;98098.16;4862227;29;20112;-83
2021/01/08 11:58:57;;;;;;;5.43;2.90;;;;;;;16.79;57.25;98083.19;4877487;29;20080;-83
2021/01/08 12:01:27;;;;;;;5.82;2.38;;;;;;;16.81;57.21;98079.03;4877877;29;20041;-83
2021/01/08 12:03:53;;;;;;;5.82;3.20;;;;;;;16.86;57.36;98066.44;4877564;29;20061;-82
2021/01/08 12:06:27;;;;;;;6.40;1.88;;;;;;;16.86;57.19;98064.50;4877756;29;20116;-83
2021/01/08 12:08:53;;;;;;;11.00;2.65;;;;;;;16.87;56.75;98066.09;4877408;29;20029;-83
2021/01/08 12:11:18;;;;;;;5.70;2.47;;;;;;;16.89;56.61;98069.22;4877494;29;20033;-83
2021/01/08 12:13:44;;;;;;;9.68;3.03;;;;;;;16.90;56.65;98054.59;4877312;29;20033;-83
2021/01/08 12:16:10;;;;;;;3.42;1.80;;;;;;;16.92;56.14;98062.38;4877479;29;20032;-83
2021/01/08 12:18:36;;;;;;;8.55;2.42;;;;;;;16.94;56.37;98062.81;4877367;29;20491;-84
2021/01/08 12:21:01;;;;;;;5.82;2.22;;;;;;;16.94;56.05;98030.41;4877238;29;20115;-83
2021/01/08 12:23:26;;;;;;;5.18;2.80;;;;;;;16.94;56.45;98044.72;4877434;29;20478;-85
2021/01/08 12:25:52;;;;;;;6.75;2.58;;;;;;;16.96;56.49;98047.84;4877199;29;20088;-84
2021/01/08 12:28:17;;;;;;;4.05;1.90;;;;;;;16.93;55.72;98028.84;4877364;29;20410;-82
2021/01/08 12:30:43;;;;;;;7.72;2.80;;;;;;;16.90;55.92;98043.78;4877107;29;20025;-84
2021/01/08 12:33:09;;;;;;;4.45;2.38;;;;;;;16.89;55.83;98041.44;4877222;29;20036;-83
2021/01/08 12:35:34;;;;;;;5.32;1.88;;;;;;;16.87;56.31;98035.56;4876918;29;20060;-85
2021/01/08 12:38:00;;;;;;;4.95;2.42;;;;;;;16.87;56.48;98049.06;4876981;29;20033;-84
2021/01/08 12:40:25;;;;;;;6.57;3.03;;;;;;;16.85;57.12;98060.22;4877054;29;20498;-82
2021/01/08 12:42:55;;;;;;;8.38;2.78;;;;;;;16.84;56.68;98064.06;4876873;29;20092;-84
2021/01/08 12:45:23;;;;;;;6.38;2.42;;;;;;;16.83;57.06;98073.28;4877075;29;20025;-86
2021/01/08 12:47:49;;;;;;;;;;;;;;;16.82;57.25;98069.03;4877470;29;20033;-84
2021/01/08 12:50:16;;;;;;;3.90;2.40;;;;;;;16.79;57.14;98081.28;4876977;29;19922;-84
2021/01/08 12:52:42;;;;;;;7.47;2.40;;;;;;;16.79;57.02;98064.28;4876254;29;20029;-86
2021/01/08 12:55:09;;;;;;;9.05;2.55;;;;;;;16.77;56.97;98064.66;4876876;29;20044;-83
2021/01/08 12:57:35;;;;;;;6.68;3.10;;;;;;;16.74;56.37;98078.81;4876787;29;20505;-85
2021/01/08 13:00:01;;;;;;;9.25;2.00;;;;;;;16.73;56.95;98081.84;4876505;29;20041;-86
2021/01/08 13:02:29;;;;;;;7.30;2.05;;;;;;;16.72;56.92;98099.97;4876820;29;20036;-83
2021/01/08 13:04:54;;;;;;;;;;;;;;;16.73;57.03;98098.84;4876959;29;20623;-83
2021/01/08 13:07:20;;;;;;;5.53;1.92;;;;;;;16.68;56.98;98096.38;4876623;29;20014;-83
2021/01/08 13:09:45;;;;;;;9.30;2.33;;;;;;;16.67;56.83;98094.78;4876459;29;20387;-83
2021/01/08 13:12:13;;;;;;;5.78;2.42;;;;;;;16.67;56.82;98083.22;4876563;29;20097;-85
2021/01/08 13:14:39;;;;;;;8.73;2.08;;;;;;;16.65;56.78;98083.56;4876566;29;20048;-84
2021/01/08 13:17:04;;;;;;;6.78;2.50;;;;;;;16.64;56.62;98069.28;4876355;29;20041;-85
2021/01/08 13:19:30;;;;;;;9.18;3.17;;;;;;;16.63;56.65;98075.00;4876518;29;20036;-85
2021/01/08 13:21:55;;;;;;;8.57;2.60;;;;;;;16.63;56.56;98091.22;4876251;29;20039;-83
2021/01/08 13:24:21;;;;;;;7.80;2.75;;;;;;;16.61;56.74;98067.25;4876374;29;20135;-85
2021/01/08 13:26:47;;;;;;;6.80;2.47;;;;;;;16.61;56.74;98080.75;4875927;29;20732;-84
2021/01/08 13:29:13;;;;;;;8.32;2.67;;;;;;;16.59;56.55;98077.59;4876423;29;20469;-84
2021/01/08 13:31:41;;;;;;;9.05;3.55;;;;;;;16.58;56.71;98091.44;4876353;29;20116;-84
2021/01/08 13:34:07;;;;;;;5.45;2.25;;;;;;;16.57;57.04;98085.25;4877666;29;20033;-83
2021/01/08 13:36:35;;;;;;;5.03;2.75;;;;;;;16.59;57.07;98093.03;4876106;29;20109;-86
2021/01/08 13:39:03;;;;;;;3.70;2.50;;;;;;;16.58;56.70;98094.91;4875948;29;20040;-84
2021/01/08 13:41:29;;;;;;;8.55;2.58;;;;;;;16.58;56.99;98096.84;4876167;29;20064;-83
2021/01/08 13:43:54;;;;;;;11.73;3.63;;;;;;;16.55;56.75;98094.81;4875927;29;20080;-86
2021/01/08 13:46:20;;;;;;;5.75;3.15;;;;;;;16.54;57.06;98088.63;4876052;29;20065;-83
2021/01/08 13:48:46;;;;;;;9.02;4.05;;;;;;;16.55;56.94;98084.00;4875857;29;20406;-83
2021/01/08 13:51:26;;;;;;;20.23;5.45;;;;;;;16.53;56.93;98078.97;4860530;29;20136;-84
2021/01/08 13:53:52;;;;;;;22.02;7.13;;;;;;;16.51;57.38;98083.91;4875721;29;20021;-83
2021/01/08 13:56:25;;;;;;;14.00;6.10;;;;;;;16.49;57.36;98081.56;4876008;29;20043;-85
2021/01/08 13:58:51;;;;;;;14.75;4.70;;;;;;;16.49;57.69;98076.16;4875663;29;20029;-84
2021/01/08 14:01:17;;;;;;;9.38;4.20;;;;;;;16.46;57.31;98073.34;4876002;29;20025;-84
2021/01/08 14:03:43;;;;;;;6.72;3.70;;;;;;;16.43;56.95;98064.03;4875812;29;20510;-83
2021/01/08 14:06:16;;;;;;;5.93;3.40;;;;;;;16.41;57.26;98087.84;4879838;29;20099;-84
2021/01/08 14:08:42;;;;;;;11.43;4.38;;;;;;;16.39;57.35;98083.91;4879569;29;20109;-85
2021/01/08 14:11:07;;;;;;;8.25;4.75;;;;;;;16.36;57.80;98063.81;4879651;29;20029;-83
2021/01/08 14:13:33;;;;;;;10.63;3.90;;;;;;;16.32;58.29;98077.19;4879627;29;20025;-84
2021/01/08 14:15:58;;;;;;;10.52;4.75;;;;;;;16.31;58.21;98069.44;4879344;29;20052;-83
2021/01/08 14:18:24;;;;;;;11.43;4.53;;;;;;;16.27;58.18;98073.91;4879630;29;20040;-84
2021/01/08 14:20:49;;;;;;;6.97;3.10;;;;;;;16.24;58.14;98072.66;4879452;29;20076;-84
2021/01/08 14:23:15;;;;;;;7.78;3.70;;;;;;;16.19;58.33;98072.13;4879512;29;20025;-84
2021/01/08 14:25:40;;;;;;;12.30;4.25;;;;;;;16.17;58.20;98065.16;4879514;29;20045;-85
2021/01/08 14:28:06;;;;;;;14.02;6.13;;;;;;;16.16;58.43;98068.97;4879264;29;20021;-84
2021/01/08 14:30:31;;;;;;;9.20;3.47;;;;;;;16.12;58.39;98048.41;4880953;29;20451;-83
2021/01/08 14:32:57;;;;;;;13.60;3.78;;;;;;;16.08;58.20;98053.69;4879154;29;20450;-83
2021/01/08 14:35:22;;;;;;;10.23;4.15;;;;;;;16.07;58.54;98054.81;4878980;29;20049;-85
2021/01/08 14:37:48;;;;;;;7.85;4.32;;;;;;;16.04;58.37;98068.97;4879043;29;20501;-87
2021/01/08 14:40:14;;;;;;;6.75;3.75;;;;;;;16.02;58.61;98057.72;4879232;29;20115;-84
2021/01/08 14:42:39;;;;;;;8.98;4.35;;;;;;;15.99;58.40;98067.28;4879110;29;20048;-84
2021/01/08 14:45:05;;;;;;;9.43;5.45;;;;;;;15.98;58.87;98078.41;4878940;29;20037;-86
2021/01/08 14:47:31;;;;;;;5.22;4.00;;;;;;;15.94;58.97;98080.97;4879048;29;20120;-86
2021/01/08 14:49:56;;;;;;;8.65;3.78;;;;;;;15.92;59.04;98071.66;4878912;29;20761;-85
2021/01/08 14:52:22;;;;;;;14.65;5.55;;;;;;;15.93;59.29;98081.31;4878905;29;20037;-86
2021/01/08 14:54:47;;;;;;;12.80;4.95;;;;;;;15.89;59.15;98077.72;4878813;29;20037;-85
2021/01/08 14:57:13;;;;;;;9.93;5.40;;;;;;;15.87;59.36;98096.91;4878900;29;20085;-85
2021/01/08 14:59:38;;;;;;;9.15;5.05;;;;;;;15.86;59.44;98089.19;4878830;29;20039;-86
2021/01/08 15:02:03;;;;;;;10.70;4.68;;;;;;;15.84;59.85;98098.38;4878616;29;20541;-87
2021/01/08 15:04:29;;;;;;;9.35;4.88;;;;;;;15.82;59.91;98102.50;4880439;29;20108;-86
2021/01/08 15:06:54;;;;;;;9.63;4.97;;;;;;;15.79;59.98;98098.53;4878609;29;20085;-84
2021/01/08 15:09:20;;;;;;;14.10;5.18;;;;;;;15.78;60.13;98093.50;4878850;29;20109;-86
2021/01/08 15:11:46;;;;;;;11.13;4.90;;;;;;;15.76;60.28;98080.34;4878729;29;20403;-87
2021/01/08 15:14:11;;;;;;;12.07;5.13;;;;;;;15.74;60.50;98087.22;4878951;29;20033;-87
2021/01/08 15:16:37;;;;;;;17.70;5.82;;;;;;;15.71;60.64;98077.06;4878349;29;20057;-87
2021/01/08 15:19:03;;;;;;;12.23;5.22;;;;;;;15.69;60.43;98083.59;4878433;29;20033;-88
2021/01/08 15:21:29;;;;;;;15.32;5.75;;;;;;;15.68;60.60;98094.72;4878608;29;20462;-86
2021/01/08 15:23:55;;;;;;;8.65;4.47;;;;;;;15.66;60.68;98096.94;4878292;29;20069;-86
2021/01/08 15:26:21;;;;;;;7.13;4.00;;;;;;;15.64;60.86;98078.41;4878518;29;20039;-87
2021/01/08 15:28:46;;;;;;;12.70;4.90;;;;;;;15.63;61.01;98076.06;4878334;29;20047;-87
2021/01/08 15:31:12;;;;;;;11.43;4.57;;;;;;;15.60;61.04;98065.94;4878370;29;20028;-88
2021/01/08 15:33:38;;;;;;;9.68;5.35;;;;;;;15.57;61.14;98064.69;4878303;29;20037;-88
2021/01/08 15:36:04;;;;;;;9.20;4.88;;;;;;;15.57;61.08;98063.91;4877972;29;20495;-86
2021/01/08 15:38:32;;;;;;;11.27;4.40;;;;;;;15.55;61.34;98074.22;4878232;29;20088;-86
2021/01/08 15:40:58;;;;;;;11.00;5.35;;;;;;;15.53;61.43;98082.66;4878075;29;20419;-87
2021/01/08 15:43:23;;;;;;;11.10;4.30;;;;;;;15.50;61.34;98088.69;4877397;29;20033;-89
2021/01/08 15:45:49;;;;;;;17.02;4.68;;;;;;;15.51;61.73;98107.25;4862988;29;20040;-88
2021/01/08 15:48:14;;;;;;;9.43;4.68;;;;;;;15.47;61.59;98094.75;4862281;29;20459;-89
2021/01/08 15:50:40;;;;;;;8.30;4.40;;;;;;;15.44;61.80;98104.31;4861866;29;20033;-84
2021/01/08 15:53:05;;;;;;;8.82;3.95;;;;;;;15.43;62.04;98110.81;4877516;29;20041;-84
2021/01/08 15:55:31;;;;;;;12.85;4.38;;;;;;;15.42;61.82;98111.91;4856373;29;20029;-83
2021/01/08 15:57:57;;;;;;;12.43;4.22;;;;;;;15.41;62.11;98109.56;4861755;29;20028;-86
2021/01/08 16:00:23;;;;;;;7.63;3.95;;;;;;;15.41;62.13;98123.81;4875644;29;20040;-86
2021/01/08 16:02:49;;;;;;;12.77;4.57;;;;;;;15.40;62.30;98118.75;4874628;29;20052;-86
2021/01/08 16:05:14;;;;;;;10.38;4.90;;;;;;;15.39;62.30;98115.25;4875552;29;20037;-87
2021/01/08 16:07:40;;;;;;;13.57;5.25;;;;;;;15.40;62.57;98107.97;4877753;29;20422;-87
2021/01/08 16:10:06;;;;;;;11.98;4.95;;;;;;;15.39;62.69;98109.09;4861423;29;20037;-86
2021/01/08 16:12:33;;;;;;;20.10;6.00;;;;;;;15.37;62.83;98090.56;4860115;29;20044;-86
2021/01/08 16:14:58;;;;;;;11.32;5.22;;;;;;;15.34;63.01;98086.63;4874201;29;20044;-88
2021/01/08 16:17:26;;;;;;;8.95;4.53;;;;;;;15.34;62.84;98081.25;4859462;29;20436;-91
2021/01/08 16:19:52;;;;;;;9.75;4.82;;;;;;;15.31;63.02;98064.97;4844492;29;20040;-91
2021/01/08 16:22:17;;;;;;;10.45;4.47;;;;;;;15.28;63.24;98076.38;4869785;29;20048;-91
2021/01/08 16:24:44;;;;;;;13.63;4.68;;;;;;;15.26;63.58;98087.50;4876325;29;20029;-86
2021/01/08 16:27:46;;;;;;;13.00;4.97;;;;;;;15.25;63.77;98094.00;4862713;29;20119;-94
2021/01/08 16:30:19;;;;;;;16.50;6.38;;;;;;;15.25;63.93;98109.38;4875358;29;20025;-92
2021/01/08 16:32:45;;;;;;;11.93;5.25;;;;;;;15.20;64.19;98115.75;4866836;29;20638;-85
2021/01/08 16:35:12;;;;;;;15.52;5.40;;;;;;;15.19;64.28;98123.03;4857250;29;20045;-86
2021/01/08 16:37:38;;;;;;;12.98;5.70;;;;;;;15.17;64.18;98114.50;4866654;29;20025;-84
2021/01/08 16:40:06;;;;;;;12.02;4.38;;;;;;;15.17;64.29;98117.22;4877535;29;20037;-87
2021/01/08 16:42:31;;;;;;;13.10;4.70;;;;;;;15.13;64.47;98137.03;4876716;29;20482;-84
2021/01/08 16:44:57;;;;;;;13.00;4.88;;;;;;;15.13;64.59;98132.44;4877817;29;20033;-86
2021/01/08 16:47:22;;;;;;;16.35;5.78;;;;;;;15.14;64.61;98133.22;4873941;29;20526;-90
2021/01/08 16:49:48;;;;;;;14.27;4.93;;;;;;;15.11;64.81;98137.38;4857921;29;20506;-86
2021/01/08 16:52:15;;;;;;;19.50;6.72;;;;;;;15.11;64.93;98141.94;4842541;29;20036;-88
2021/01/08 16:54:47;;;;;;;19.27;7.50;;;;;;;15.09;64.78;98133.41;4842174;29;20033;-84
2021/01/08 16:57:14;;;;;;;22.48;7.80;;;;;;;15.06;64.65;98140.22;4851034;29;20108;-91
2021/01/08 16:59:40;;;;;;;14.10;6.93;;;;;;;15.04;64.44;98113.66;4876565;29;20037;-89
2021/01/08 17:02:10;;;;;;;17.25;6.15;;;;;;;15.03;64.75;98117.44;4874208;29;20037;-90
2021/01/08 17:04:36;;;;;;;14.68;5.82;;;;;;;15.03;64.50;98116.66;4859402;29;20159;-93
2021/01/08 17:07:18;;;;;;;11.40;5.25;;;;;;;15.04;64.32;98110.19;4868035;29;20064;-96
2021/01/08 17:18:23;;;;;;;23.10;9.52;;;;;;;15.02;64.16;98115.09;4907492;29;20046;-96
2021/01/08 17:20:49;;;;;;;12.63;5.70;;;;;;;15.00;64.08;98120.81;4863158;29;20041;-86